createdAt,value
2022-11-27T00:02:15.589Z,99.90
2022-11-27T00:04:42.286Z,99.90
2022-11-27T00:07:09.232Z,99.90
2022-11-27T00:09:36.065Z,99.90
2022-11-27T00:12:03.079Z,99.90
2022-11-27T00:14:29.815Z,99.90
2022-11-27T00:16:57.704Z,99.90
2022-11-27T00:19:24.473Z,99.90
2022-11-27T00:21:51.155Z,99.90
2022-11-27T00:24:17.827Z,99.90
2022-11-27T00:26:44.887Z,99.90
2022-11-27T00:29:11.624Z,99.90
2022-11-27T00:31:38.404Z,99.90
2022-11-27T00:34:06.030Z,99.90
2022-11-27T00:36:33.116Z,99.90
2022-11-27T00:38:59.835Z,99.90
2022-11-27T00:41:27.441Z,99.90
2022-11-27T00:43:54.314Z,99.90
2022-11-27T00:46:27.858Z,99.90
2022-11-27T00:48:55.514Z,99.90
2022-11-27T00:51:22.329Z,99.90
2022-11-27T00:53:49.142Z,99.90
2022-11-27T00:56:16.526Z,99.90
2022-11-27T00:58:43.280Z,99.90
2022-11-27T01:01:15.274Z,99.90
2022-11-27T01:03:42.027Z,99.90
2022-11-27T01:06:08.797Z,99.90
2022-11-27T01:08:35.503Z,99.90
2022-11-27T01:11:02.308Z,99.90
2022-11-27T01:13:30.773Z,99.90
2022-11-27T01:16:00.736Z,99.90
2022-11-27T01:18:27.561Z,99.90
2022-11-27T01:20:54.297Z,99.90
2022-11-27T01:23:21.302Z,99.90
2022-11-27T01:25:48.448Z,99.90
2022-11-27T01:28:15.549Z,99.90
2022-11-27T01:30:42.342Z,99.90
2022-11-27T01:33:09.063Z,99.90
2022-11-27T01:35:35.707Z,99.90
2022-11-27T01:38:02.444Z,99.90
2022-11-27T01:40:29.200Z,99.90
2022-11-27T01:42:55.937Z,99.90
2022-11-27T01:45:22.675Z,99.90
2022-11-27T01:47:56.563Z,99.90
2022-11-27T01:50:27.373Z,99.90
2022-11-27T01:52:54.765Z,99.90
2022-11-27T01:55:28.845Z,99.90
2022-11-27T01:57:57.973Z,99.90
2022-11-27T02:00:24.783Z,99.90
2022-11-27T02:02:51.654Z,99.90
2022-11-27T02:05:19.786Z,99.90
2022-11-27T02:07:46.554Z,99.90
2022-11-27T02:10:13.315Z,99.90
2022-11-27T02:12:39.985Z,99.90
2022-11-27T02:15:06.920Z,99.90
2022-11-27T02:17:33.629Z,99.90
2022-11-27T02:20:20.570Z,99.90
2022-11-27T02:23:10.427Z,99.90
2022-11-27T02:25:57.402Z,99.90
2022-11-27T02:28:24.178Z,99.90
2022-11-27T02:30:51.929Z,99.90
2022-11-27T02:33:19.634Z,99.90
2022-11-27T02:36:09.423Z,99.90
2022-11-27T02:38:40.457Z,99.90
2022-11-27T02:41:08.546Z,99.90
2022-11-27T02:43:48.377Z,99.90
2022-11-27T02:46:15.155Z,99.90
2022-11-27T02:48:48.948Z,99.90
2022-11-27T02:51:16.649Z,99.90
2022-11-27T02:53:45.722Z,99.90
2022-11-27T02:56:13.182Z,99.90
2022-11-27T02:58:39.884Z,99.90
2022-11-27T03:01:06.606Z,99.90
2022-11-27T03:03:34.539Z,99.90
2022-11-27T03:06:02.229Z,99.90
2022-11-27T03:08:49.181Z,99.90
2022-11-27T03:11:15.899Z,99.90
2022-11-27T03:13:53.460Z,99.90
2022-11-27T03:16:39.328Z,99.90
2022-11-27T03:19:29.331Z,99.90
2022-11-27T03:21:56.629Z,99.90
2022-11-27T03:24:23.390Z,99.90
2022-11-27T03:26:50.319Z,99.90
2022-11-27T03:29:18.125Z,99.90
2022-11-27T03:31:44.922Z,99.90
2022-11-27T03:34:11.741Z,99.90
2022-11-27T03:36:38.470Z,99.90
2022-11-27T03:39:05.202Z,99.90
2022-11-27T03:41:39.293Z,99.90
2022-11-27T03:44:18.204Z,99.90
2022-11-27T03:46:55.161Z,99.90
2022-11-27T03:49:29.104Z,99.90
2022-11-27T03:52:00.789Z,99.90
2022-11-27T03:54:46.251Z,99.90
2022-11-27T03:57:15.982Z,99.90
2022-11-27T03:59:42.682Z,99.90
2022-11-27T04:02:13.822Z,99.90
2022-11-27T04:04:40.911Z,99.90
2022-11-27T04:07:07.827Z,99.90
2022-11-27T04:09:34.494Z,99.90
2022-11-27T04:12:01.236Z,99.90
2022-11-27T04:14:27.953Z,99.90
2022-11-27T04:16:54.718Z,99.90
2022-11-27T04:19:21.588Z,99.90
2022-11-27T04:21:48.319Z,99.90
2022-11-27T04:24:15.027Z,99.90
2022-11-27T04:26:41.714Z,99.90
2022-11-27T04:29:08.409Z,99.90
2022-11-27T04:31:35.182Z,99.90
2022-11-27T04:34:01.942Z,99.90
2022-11-27T04:36:28.678Z,99.90
2022-11-27T04:38:55.343Z,99.90
2022-11-27T04:41:22.051Z,99.90
2022-11-27T04:43:48.802Z,99.90
2022-11-27T04:46:15.623Z,99.90
2022-11-27T04:48:42.355Z,99.90
2022-11-27T04:51:09.048Z,99.90
2022-11-27T04:53:35.810Z,99.90
2022-11-27T04:56:02.538Z,99.90
2022-11-27T04:58:29.228Z,99.90
2022-11-27T05:00:56.015Z,99.90
2022-11-27T05:03:22.810Z,99.90
2022-11-27T05:05:58.468Z,99.90
2022-11-27T05:08:25.446Z,99.90
2022-11-27T05:10:59.567Z,99.90
2022-11-27T05:13:26.364Z,99.90
2022-11-27T05:15:53.134Z,99.90
2022-11-27T05:18:19.902Z,99.90
2022-11-27T05:20:46.647Z,99.90
2022-11-27T05:23:13.340Z,99.90
2022-11-27T05:25:40.046Z,99.90
2022-11-27T05:28:06.751Z,99.90
2022-11-27T05:30:33.441Z,99.90
2022-11-27T05:33:00.149Z,99.90
2022-11-27T05:35:26.854Z,99.90
2022-11-27T05:37:53.598Z,99.90
2022-11-27T05:40:20.279Z,99.90
2022-11-27T05:42:47.000Z,99.90
2022-11-27T05:45:13.666Z,99.90
2022-11-27T05:47:40.373Z,99.90
2022-11-27T05:50:07.523Z,99.90
2022-11-27T05:52:34.230Z,99.90
2022-11-27T05:55:00.938Z,99.90
2022-11-27T05:57:28.325Z,99.90
2022-11-27T05:59:55.052Z,99.90
2022-11-27T06:02:26.361Z,99.90
2022-11-27T06:04:55.826Z,99.90
2022-11-27T06:07:22.552Z,99.90
2022-11-27T06:09:49.283Z,99.90
2022-11-27T06:12:15.970Z,99.90
2022-11-27T06:14:42.897Z,99.90
2022-11-27T06:17:09.828Z,99.90
2022-11-27T06:19:36.575Z,99.90
2022-11-27T06:22:03.265Z,99.90
2022-11-27T06:24:29.943Z,99.90
2022-11-27T06:26:56.606Z,99.90
2022-11-27T06:29:23.351Z,99.90
2022-11-27T06:31:50.198Z,99.90
2022-11-27T06:34:16.919Z,99.90
2022-11-27T06:36:43.656Z,99.90
2022-11-27T06:39:12.192Z,99.90
2022-11-27T06:41:38.967Z,99.90
2022-11-27T06:44:05.690Z,99.90
2022-11-27T06:46:32.375Z,99.90
2022-11-27T06:48:59.366Z,99.90
2022-11-27T06:51:26.849Z,99.90
2022-11-27T06:53:53.631Z,99.90
2022-11-27T06:56:21.570Z,99.90
2022-11-27T06:58:50.719Z,99.90
2022-11-27T07:01:17.761Z,99.90
2022-11-27T07:03:44.556Z,99.90
2022-11-27T07:06:12.050Z,99.90
2022-11-27T07:08:38.730Z,99.90
2022-11-27T07:11:06.604Z,99.90
2022-11-27T07:13:33.302Z,99.90
2022-11-27T07:16:03.537Z,99.90
2022-11-27T07:18:30.507Z,99.90
2022-11-27T07:20:57.240Z,99.90
2022-11-27T07:23:23.986Z,99.90
2022-11-27T07:25:50.720Z,99.90
2022-11-27T07:28:19.079Z,99.90
2022-11-27T07:30:46.144Z,99.90
2022-11-27T07:33:12.890Z,99.90
2022-11-27T07:35:39.580Z,99.90
2022-11-27T07:38:06.315Z,99.90
2022-11-27T07:40:33.134Z,99.90
2022-11-27T07:42:59.858Z,99.90
2022-11-27T07:45:26.722Z,99.90
2022-11-27T07:47:53.451Z,99.90
2022-11-27T07:50:20.155Z,99.90
2022-11-27T07:52:46.885Z,99.90
2022-11-27T07:55:13.578Z,99.90
2022-11-27T07:57:40.359Z,99.90
2022-11-27T08:00:07.341Z,99.90
2022-11-27T08:02:34.063Z,99.90
2022-11-27T08:05:00.819Z,99.90
2022-11-27T08:07:28.745Z,99.90
2022-11-27T08:09:57.605Z,99.90
2022-11-27T08:12:24.552Z,99.90
2022-11-27T08:14:51.384Z,99.90
2022-11-27T08:17:18.142Z,99.90
2022-11-27T08:19:44.881Z,99.90
2022-11-27T08:22:12.326Z,99.90
2022-11-27T08:24:39.548Z,99.90
2022-11-27T08:27:06.408Z,99.90
2022-11-27T08:29:34.174Z,99.90
2022-11-27T08:32:01.003Z,99.90
2022-11-27T08:34:27.852Z,99.90
2022-11-27T08:36:54.565Z,99.90
2022-11-27T08:39:21.355Z,99.90
2022-11-27T08:41:48.043Z,99.90
2022-11-27T08:44:14.767Z,99.90
2022-11-27T08:46:42.863Z,99.90
2022-11-27T08:49:09.540Z,99.90
2022-11-27T08:51:36.308Z,99.90
2022-11-27T08:54:03.114Z,99.90
2022-11-27T08:56:29.846Z,99.90
2022-11-27T08:58:57.271Z,99.90
2022-11-27T09:01:27.880Z,99.90
2022-11-27T09:03:54.676Z,99.90
2022-11-27T09:06:22.407Z,99.90
2022-11-27T09:08:49.168Z,99.90
2022-11-27T09:11:16.438Z,99.90
2022-11-27T09:13:43.175Z,99.90
2022-11-27T09:16:10.779Z,99.90
2022-11-27T09:18:37.569Z,99.90
2022-11-27T09:21:05.192Z,99.90
2022-11-27T09:23:32.145Z,99.90
2022-11-27T09:26:01.976Z,99.90
2022-11-27T09:28:31.682Z,99.90
2022-11-27T09:30:59.315Z,99.90
2022-11-27T09:33:26.222Z,99.90
2022-11-27T09:35:53.079Z,99.90
2022-11-27T09:38:19.937Z,99.90
2022-11-27T09:40:50.205Z,99.90
2022-11-27T09:43:17.417Z,99.90
2022-11-27T09:45:46.647Z,99.90
2022-11-27T09:48:15.508Z,99.90
2022-11-27T09:50:50.110Z,99.90
2022-11-27T09:53:20.495Z,99.90
2022-11-27T09:55:48.712Z,99.90
2022-11-27T09:58:16.316Z,99.90
2022-11-27T10:00:46.142Z,99.90
2022-11-27T10:03:16.964Z,99.90
2022-11-27T10:05:46.779Z,99.90
2022-11-27T10:08:13.759Z,99.90
2022-11-27T10:10:57.060Z,99.90
2022-11-27T10:13:23.792Z,99.90
2022-11-27T10:15:57.027Z,99.90
2022-11-27T10:18:42.490Z,99.90
2022-11-27T10:21:09.172Z,99.90
2022-11-27T10:23:45.072Z,99.90
2022-11-27T10:26:18.009Z,99.90
2022-11-27T10:28:51.103Z,99.90
2022-11-27T10:31:26.998Z,99.90
2022-11-27T10:33:54.955Z,99.90
2022-11-27T10:36:28.651Z,99.90
2022-11-27T10:38:55.463Z,99.90
2022-11-27T10:44:20.323Z,99.90
2022-11-27T10:46:46.983Z,99.90
2022-11-27T10:49:13.690Z,98.30
2022-11-27T10:51:42.443Z,99.10
2022-11-27T10:54:12.317Z,98.90
2022-11-27T10:56:39.038Z,98.50
2022-11-27T10:59:37.988Z,96.80
2022-11-27T11:02:05.772Z,96.50
2022-11-27T11:04:39.700Z,96.00
2022-11-27T11:07:19.365Z,96.80
2022-11-27T11:09:46.320Z,97.00
2022-11-27T11:12:21.250Z,97.20
2022-11-27T11:14:52.145Z,97.60
2022-11-27T11:17:22.706Z,97.40
2022-11-27T11:19:49.478Z,97.70
2022-11-27T11:22:16.498Z,97.60
2022-11-27T11:24:46.717Z,97.90
2022-11-27T11:27:17.492Z,98.10
2022-11-27T11:29:50.990Z,98.10
2022-11-27T11:32:21.935Z,98.20
2022-11-27T11:34:56.269Z,97.90
2022-11-27T11:37:26.539Z,97.70
2022-11-27T11:40:05.422Z,97.90
2022-11-27T11:42:33.000Z,96.60
2022-11-27T11:45:02.732Z,95.90
2022-11-27T11:47:29.506Z,95.80
2022-11-27T11:49:56.429Z,95.50
2022-11-27T11:52:23.167Z,94.20
2022-11-27T11:55:08.895Z,93.70
2022-11-27T11:57:54.403Z,93.60
2022-11-27T12:00:29.744Z,94.30
2022-11-27T12:03:12.854Z,94.60
2022-11-27T12:05:45.632Z,93.90
2022-11-27T12:08:30.830Z,93.60
2022-11-27T12:10:57.522Z,93.90
2022-11-27T12:13:43.066Z,94.60
2022-11-27T12:16:19.229Z,94.80
2022-11-27T12:18:46.023Z,94.70
2022-11-27T12:21:16.302Z,94.00
2022-11-27T12:23:45.915Z,93.40
2022-11-27T12:26:28.065Z,92.70
2022-11-27T12:28:59.160Z,91.70
2022-11-27T12:31:26.357Z,91.20
2022-11-27T12:33:53.078Z,91.40
2022-11-27T12:36:22.584Z,92.00
2022-11-27T12:39:07.903Z,92.00
2022-11-27T12:42:15.710Z,92.20
2022-11-27T12:44:47.398Z,92.00
2022-11-27T12:47:19.066Z,92.20
2022-11-27T12:49:46.475Z,91.90
2022-11-27T12:52:13.153Z,91.50
2022-11-27T12:54:58.837Z,91.60
2022-11-27T12:57:40.801Z,91.00
2022-11-27T13:00:29.448Z,91.40
2022-11-27T13:03:14.783Z,91.30
2022-11-27T13:05:42.554Z,91.90
2022-11-27T13:08:26.999Z,92.50
2022-11-27T13:10:54.878Z,92.90
2022-11-27T13:13:30.304Z,93.10
2022-11-27T13:16:11.405Z,93.40
2022-11-27T13:18:57.960Z,93.40
2022-11-27T13:21:26.319Z,93.40
2022-11-27T13:23:53.306Z,93.40
2022-11-27T13:26:43.249Z,93.50
2022-11-27T13:29:27.587Z,93.30
2022-11-27T13:31:59.596Z,93.50
2022-11-27T13:34:27.243Z,93.40
2022-11-27T13:36:58.284Z,93.60
2022-11-27T13:39:25.888Z,93.60
2022-11-27T13:42:05.961Z,93.60
2022-11-27T13:44:32.710Z,93.90
2022-11-27T13:47:05.109Z,94.20
2022-11-27T13:49:32.692Z,94.20
2022-11-27T13:52:12.690Z,94.30
2022-11-27T13:54:39.575Z,93.80
2022-11-27T13:57:09.879Z,94.10
2022-11-27T13:59:39.520Z,94.50
2022-11-27T14:02:06.851Z,95.00
2022-11-27T14:04:33.739Z,95.20
2022-11-27T14:07:07.363Z,95.20
2022-11-27T14:09:35.332Z,94.80
2022-11-27T14:12:02.069Z,94.90
2022-11-27T14:14:28.754Z,95.50
2022-11-27T14:16:58.867Z,95.60
2022-11-27T14:19:33.522Z,95.40
2022-11-27T14:22:01.357Z,95.80
2022-11-27T14:24:28.096Z,96.30
2022-11-27T14:26:54.923Z,97.00
2022-11-27T14:29:22.000Z,97.50
2022-11-27T14:31:58.408Z,98.30
2022-11-27T14:34:26.085Z,98.70
2022-11-27T14:36:52.965Z,98.90
2022-11-27T14:39:23.436Z,99.40
2022-11-27T14:41:59.705Z,99.60
2022-11-27T14:44:26.441Z,99.70
2022-11-27T14:46:53.315Z,99.70
2022-11-27T14:49:20.339Z,99.80
2022-11-27T14:51:47.030Z,99.80
2022-11-27T14:54:16.810Z,99.50
2022-11-27T14:56:43.596Z,99.80
2022-11-27T14:59:12.920Z,99.90
2022-11-27T15:01:39.615Z,99.90
2022-11-27T15:04:07.147Z,99.90
2022-11-27T15:06:35.188Z,99.90
2022-11-27T15:09:30.349Z,99.90
2022-11-27T15:11:59.150Z,99.90
2022-11-27T15:14:25.935Z,99.90
2022-11-27T15:16:52.807Z,99.90
2022-11-27T15:19:25.634Z,99.90
2022-11-27T15:21:52.332Z,99.90
2022-11-27T15:24:29.170Z,99.90
2022-11-27T15:26:55.855Z,99.90
2022-11-27T15:29:30.176Z,99.90
2022-11-27T15:31:56.966Z,99.90
2022-11-27T15:34:23.751Z,99.90
2022-11-27T15:37:01.711Z,99.90
2022-11-27T15:39:31.459Z,99.90
2022-11-27T15:41:58.999Z,99.90
2022-11-27T15:44:26.058Z,99.90
2022-11-27T15:46:52.968Z,99.90
2022-11-27T15:49:20.315Z,99.90
2022-11-27T15:51:47.014Z,99.90
2022-11-27T15:54:13.702Z,99.90
2022-11-27T15:56:40.536Z,99.90
2022-11-27T15:59:08.300Z,99.90
2022-11-27T16:01:35.064Z,99.90
2022-11-27T16:04:01.866Z,99.90
2022-11-27T16:06:28.636Z,99.90
2022-11-27T16:08:59.310Z,99.90
2022-11-27T16:11:29.165Z,99.90
2022-11-27T16:13:55.977Z,99.90
2022-11-27T16:16:22.797Z,99.90
2022-11-27T16:18:49.534Z,99.90
2022-11-27T16:21:16.382Z,99.90
2022-11-27T16:23:43.111Z,99.90
2022-11-27T16:26:13.150Z,99.90
2022-11-27T16:28:39.858Z,99.90
2022-11-27T16:31:10.672Z,99.90
2022-11-27T16:33:37.503Z,99.90
2022-11-27T16:36:07.563Z,99.90
2022-11-27T16:38:34.308Z,99.90
2022-11-27T16:41:01.546Z,99.90
2022-11-27T16:43:30.917Z,99.90
2022-11-27T16:46:05.018Z,99.90
2022-11-27T16:48:32.527Z,99.90
2022-11-27T16:51:03.827Z,99.90
2022-11-27T16:53:30.972Z,99.90
2022-11-27T16:55:57.662Z,99.90
2022-11-27T16:58:24.399Z,99.90
2022-11-27T17:00:51.220Z,99.90
2022-11-27T17:03:17.963Z,99.90
2022-11-27T17:05:50.119Z,99.90
2022-11-27T17:08:18.152Z,99.90
2022-11-27T17:10:45.472Z,99.90
2022-11-27T17:13:12.266Z,99.90
2022-11-27T17:15:40.717Z,99.90
2022-11-27T17:18:07.663Z,99.90
2022-11-27T17:20:34.389Z,99.90
2022-11-27T17:23:01.104Z,99.90
2022-11-27T17:25:29.578Z,99.90
2022-11-27T17:27:56.334Z,99.90
2022-11-27T17:30:23.041Z,99.90
2022-11-27T17:32:49.711Z,99.90
2022-11-27T17:35:16.520Z,99.90
2022-11-27T17:37:44.307Z,99.90
2022-11-27T17:40:11.313Z,99.90
2022-11-27T17:42:38.119Z,99.90
2022-11-27T17:45:05.481Z,99.90
2022-11-27T17:47:34.105Z,99.90
2022-11-27T17:50:00.933Z,99.90
2022-11-27T17:52:27.700Z,99.90
2022-11-27T17:54:54.460Z,99.90
2022-11-27T17:57:21.308Z,99.90
2022-11-27T17:59:48.747Z,99.90
2022-11-27T18:02:15.509Z,99.90
2022-11-27T18:04:42.218Z,99.90
2022-11-27T18:07:09.351Z,99.90
2022-11-27T18:09:36.081Z,99.90
2022-11-27T18:12:02.858Z,99.90
2022-11-27T18:14:29.871Z,99.90
2022-11-27T18:16:56.744Z,99.90
2022-11-27T18:19:23.543Z,99.90
2022-11-27T18:21:50.245Z,99.90
2022-11-27T18:24:25.293Z,99.90
2022-11-27T18:27:10.329Z,99.90
2022-11-27T18:29:37.651Z,99.90
2022-11-27T18:32:04.636Z,99.90
2022-11-27T18:34:31.436Z,99.90
2022-11-27T18:36:59.646Z,99.90
2022-11-27T18:39:26.679Z,99.90
2022-11-27T18:41:53.464Z,99.90
2022-11-27T18:44:20.287Z,99.90
2022-11-27T18:46:47.047Z,99.90
2022-11-27T18:49:13.780Z,99.90
2022-11-27T18:51:40.714Z,99.90
2022-11-27T18:54:07.531Z,99.90
2022-11-27T18:56:34.215Z,99.90
2022-11-27T18:59:01.900Z,99.90
2022-11-27T19:01:29.619Z,99.90
2022-11-27T19:03:56.615Z,99.90
2022-11-27T19:06:24.901Z,99.90
2022-11-27T19:08:51.752Z,99.90
2022-11-27T19:11:19.442Z,99.90
2022-11-27T19:13:46.133Z,99.90
2022-11-27T19:16:16.968Z,99.90
2022-11-27T19:18:44.078Z,99.90
2022-11-27T19:21:31.046Z,99.90
2022-11-27T19:23:58.189Z,99.90
2022-11-27T19:26:26.029Z,99.90
2022-11-27T19:28:53.335Z,99.90
2022-11-27T19:31:20.395Z,99.90
2022-11-27T19:33:53.906Z,99.90
2022-11-27T19:36:20.627Z,99.90
2022-11-27T19:38:47.457Z,99.90
2022-11-27T19:41:14.949Z,99.90
2022-11-27T19:43:41.669Z,99.90
2022-11-27T19:46:20.416Z,99.90
2022-11-27T19:48:47.266Z,99.90
2022-11-27T19:51:14.037Z,99.90
2022-11-27T19:53:40.967Z,99.90
2022-11-27T19:56:07.904Z,99.90
2022-11-27T19:58:34.743Z,99.90
2022-11-27T20:01:19.961Z,99.90
2022-11-27T20:03:46.853Z,99.90
2022-11-27T20:06:14.332Z,99.90
2022-11-27T20:08:41.180Z,99.90
2022-11-27T20:11:08.465Z,99.90
2022-11-27T20:13:35.207Z,99.90
2022-11-27T20:16:01.937Z,99.90
2022-11-27T20:18:28.638Z,99.90
2022-11-27T20:21:05.417Z,99.90
2022-11-27T20:23:32.805Z,99.90
2022-11-27T20:25:59.555Z,99.90
2022-11-27T20:28:26.336Z,99.90
2022-11-27T20:30:59.587Z,99.90
2022-11-27T20:33:27.600Z,99.90
2022-11-27T20:35:54.795Z,99.90
2022-11-27T20:38:21.864Z,99.90
2022-11-27T20:40:48.881Z,99.90
2022-11-27T20:43:16.375Z,99.90
2022-11-27T20:45:43.231Z,99.90
2022-11-27T20:48:10.230Z,99.90
2022-11-27T20:50:37.255Z,99.90
2022-11-27T20:53:04.071Z,99.90
2022-11-27T20:55:30.826Z,99.90
2022-11-27T20:57:59.905Z,99.90
2022-11-27T21:00:26.993Z,99.90
2022-11-27T21:02:53.720Z,99.90
2022-11-27T21:05:20.435Z,99.90
2022-11-27T21:07:47.259Z,99.90
2022-11-27T21:10:14.601Z,99.90
2022-11-27T21:12:41.578Z,99.90
2022-11-27T21:15:13.827Z,99.90
2022-11-27T21:17:40.994Z,99.90
2022-11-27T21:20:08.053Z,99.90
2022-11-27T21:22:34.791Z,99.90
2022-11-27T21:25:01.546Z,99.90
2022-11-27T21:27:28.561Z,99.90
2022-11-27T21:29:55.368Z,99.90
2022-11-27T21:32:26.615Z,99.90
2022-11-27T21:34:53.389Z,99.90
2022-11-27T21:37:20.208Z,99.90
2022-11-27T21:39:46.963Z,99.90
2022-11-27T21:42:13.657Z,99.90
2022-11-27T21:44:42.118Z,99.90
2022-11-27T21:47:12.227Z,99.90
2022-11-27T21:49:39.533Z,99.90
2022-11-27T21:52:06.474Z,99.90
2022-11-27T21:54:33.324Z,99.90
2022-11-27T21:57:00.013Z,99.90
2022-11-27T21:59:26.754Z,99.90
2022-11-27T22:01:53.590Z,99.90
2022-11-27T22:04:20.374Z,99.90
2022-11-27T22:06:49.294Z,99.90
2022-11-27T22:09:16.467Z,99.90
2022-11-27T22:11:43.748Z,99.90
2022-11-27T22:14:10.498Z,99.90
2022-11-27T22:16:44.106Z,99.90
2022-11-27T22:19:11.816Z,99.90
2022-11-27T22:21:38.533Z,99.90
2022-11-27T22:24:05.335Z,99.90
2022-11-27T22:26:32.076Z,99.90
2022-11-27T22:28:58.756Z,99.90
2022-11-27T22:31:26.514Z,99.90
2022-11-27T22:33:53.481Z,99.90
2022-11-27T22:36:23.277Z,99.90
2022-11-27T22:38:50.714Z,99.90
2022-11-27T22:41:17.559Z,99.90
2022-11-27T22:43:44.969Z,99.90
2022-11-27T22:46:11.788Z,99.90
2022-11-27T22:48:38.511Z,99.90
2022-11-27T22:51:05.244Z,99.90
2022-11-27T22:53:34.310Z,99.90
2022-11-27T22:56:08.086Z,99.90
2022-11-27T22:58:39.807Z,99.90
2022-11-27T23:01:08.612Z,99.90
2022-11-27T23:03:35.620Z,99.90
2022-11-27T23:06:02.377Z,99.90
2022-11-27T23:08:29.152Z,99.90
2022-11-27T23:10:55.864Z,99.90
2022-11-27T23:13:22.645Z,99.90
2022-11-27T23:15:49.359Z,99.90
2022-11-27T23:18:16.050Z,99.90
2022-11-27T23:20:43.015Z,99.90
2022-11-27T23:23:10.053Z,99.90
2022-11-27T23:25:36.933Z,99.90
2022-11-27T23:28:03.753Z,99.90
2022-11-27T23:30:30.634Z,99.90
2022-11-27T23:32:57.343Z,99.90
2022-11-27T23:35:24.028Z,99.90
2022-11-27T23:37:50.704Z,99.90
2022-11-27T23:40:17.504Z,99.90
2022-11-27T23:42:44.304Z,99.90
2022-11-27T23:45:11.157Z,99.90
2022-11-27T23:47:37.886Z,99.90
2022-11-27T23:50:05.519Z,99.90
2022-11-27T23:52:32.293Z,99.90
2022-11-27T23:54:58.958Z,99.90
2022-11-27T23:57:25.666Z,99.90
2022-11-27T23:59:52.427Z,99.90
